Time;durP1;ratioP1;P1;durP2;ratioP2;P2;SDS_P1;SDS_P2;PMS_P1;PMS_P2;Temp;Humidity;BMP_temperature;BMP_pressure;BME280_temperature;BME280_humidity;BME280_pressure;Samples;Min_cycle;Max_cycle;Signal;HPM_P1;HPM_P2
2023/06/10 00:00:44;;;;;;;12.65;8.00;;;;;;;15.89;100.00;98276.38;4459801;32;20093;-66
2023/06/10 00:03:12;;;;;;;15.45;8.60;;;;;;;15.86;100.00;98276.75;4462260;32;20122;-67
2023/06/10 00:05:40;;;;;;;13.18;8.18;;;;;;;15.82;100.00;98278.09;4465928;32;20109;-66
2023/06/10 00:08:07;;;;;;;14.15;7.87;;;;;;;15.79;100.00;98276.63;4473047;32;20481;-67
2023/06/10 00:10:36;;;;;;;11.60;7.35;;;;;;;15.75;100.00;98275.34;4476668;32;20104;-66
2023/06/10 00:13:04;;;;;;;12.98;7.47;;;;;;;15.78;100.00;98278.47;4476611;32;20104;-66
2023/06/10 00:15:31;;;;;;;14.15;8.35;;;;;;;15.75;100.00;98265.59;4468843;32;20109;-66
2023/06/10 00:18:01;;;;;;;13.43;7.85;;;;;;;15.71;100.00;98272.22;4475500;32;20127;-66
2023/06/10 00:20:28;;;;;;;11.12;7.30;;;;;;;15.70;100.00;98270.63;4473601;32;20173;-66
2023/06/10 00:22:57;;;;;;;15.50;8.60;;;;;;;15.68;100.00;98275.25;4471971;32;20092;-66
2023/06/10 00:25:25;;;;;;;13.95;8.13;;;;;;;15.69;100.00;98270.78;4478958;32;20096;-66
2023/06/10 00:27:52;;;;;;;17.08;9.80;;;;;;;15.68;100.00;98267.31;4471798;32;20442;-66
2023/06/10 00:30:21;;;;;;;16.08;9.30;;;;;;;15.75;100.00;98270.87;4474520;32;20105;-66
2023/06/10 00:32:48;;;;;;;16.08;8.68;;;;;;;15.79;100.00;98264.25;4473307;32;20179;-66
2023/06/10 00:35:16;;;;;;;20.92;9.63;;;;;;;15.78;100.00;98257.34;4472543;32;20233;-66
2023/06/10 00:37:43;;;;;;;17.12;9.32;;;;;;;15.82;100.00;98264.88;4475979;32;20093;-66
2023/06/10 00:40:11;;;;;;;19.30;9.18;;;;;;;15.83;100.00;98271.81;4473230;32;20172;-66
2023/06/10 00:42:38;;;;;;;18.20;9.45;;;;;;;15.86;100.00;98268.81;4474183;32;20563;-67
2023/06/10 00:45:06;;;;;;;17.20;8.10;;;;;;;15.94;100.00;98279.28;4480357;32;20134;-67
2023/06/10 00:47:35;;;;;;;10.75;6.72;;;;;;;15.95;100.00;98276.44;4472383;32;20108;-66
2023/06/10 00:50:03;;;;;;;13.27;7.00;;;;;;;15.90;100.00;98278.03;4459892;32;20140;-66
2023/06/10 00:52:30;;;;;;;12.65;7.95;;;;;;;15.86;100.00;98277.53;4476317;32;20119;-66
2023/06/10 00:54:59;;;;;;;17.83;8.65;;;;;;;15.86;100.00;98276.75;4457218;32;20191;-66
2023/06/10 00:57:26;;;;;;;18.45;9.25;;;;;;;15.86;100.00;98274.09;4474801;32;20135;-66
2023/06/10 00:59:54;;;;;;;13.82;7.85;;;;;;;15.90;100.00;98276.19;4471556;32;20179;-67
2023/06/10 01:02:23;;;;;;;16.00;9.18;;;;;;;15.97;100.00;98278.91;4470174;32;20112;-67
2023/06/10 01:04:52;;;;;;;16.65;9.25;;;;;;;15.98;100.00;98274.44;4460992;32;20112;-66
2023/06/10 01:07:28;;;;;;;18.17;9.07;;;;;;;15.99;100.00;98269.00;4461763;32;20101;-66
2023/06/10 01:10:03;;;;;;;15.68;8.80;;;;;;;16.00;100.00;98281.16;4449174;32;20104;-67
2023/06/10 01:12:52;;;;;;;19.95;9.75;;;;;;;15.95;100.00;98267.72;4443903;32;20108;-67
2023/06/10 01:15:21;;;;;;;19.25;9.85;;;;;;;15.96;100.00;98277.28;4449365;32;20127;-67
2023/06/10 01:17:54;;;;;;;16.12;8.82;;;;;;;15.94;100.00;98268.69;4460161;32;20147;-67
2023/06/10 01:20:23;;;;;;;16.23;8.25;;;;;;;16.01;100.00;98280.19;4464495;32;20150;-67
2023/06/10 01:22:54;;;;;;;15.10;8.57;;;;;;;16.07;100.00;98276.78;4461928;32;20511;-66
2023/06/10 01:25:27;;;;;;;15.98;9.13;;;;;;;16.07;100.00;98281.28;4461841;32;20119;-66
2023/06/10 01:28:24;;;;;;;15.18;9.00;;;;;;;16.02;100.00;98281.00;4449748;32;20105;-67
2023/06/10 01:31:17;;;;;;;16.80;9.85;;;;;;;16.00;100.00;98278.53;4384161;32;20152;-67
2023/06/10 01:33:52;;;;;;;15.50;8.37;;;;;;;16.01;100.00;98279.37;4387813;32;20502;-66
2023/06/10 01:36:24;;;;;;;15.23;10.13;;;;;;;15.98;100.00;98279.75;4387233;32;20127;-67
2023/06/10 01:38:53;;;;;;;16.48;9.68;;;;;;;16.00;100.00;98275.06;4386621;32;20122;-67
2023/06/10 01:41:21;;;;;;;20.70;9.32;;;;;;;16.00;100.00;98269.78;4384173;32;20137;-67
2023/06/10 01:43:48;;;;;;;17.50;9.63;;;;;;;15.99;100.00;98271.63;4386953;32;20265;-67
2023/06/10 01:46:19;;;;;;;15.82;10.18;;;;;;;15.95;100.00;98275.62;4386346;32;20134;-67
2023/06/10 01:48:47;;;;;;;16.45;9.43;;;;;;;16.00;100.00;98272.44;4387794;32;20115;-67
2023/06/10 01:51:15;;;;;;;15.65;8.95;;;;;;;16.03;100.00;98272.06;4388071;32;20110;-67
2023/06/10 01:53:42;;;;;;;18.27;10.27;;;;;;;16.05;100.00;98270.87;4387625;32;20117;-67
2023/06/10 01:56:09;;;;;;;17.08;9.77;;;;;;;16.11;100.00;98270.16;4384387;32;20118;-67
2023/06/10 01:58:37;;;;;;;18.65;10.75;;;;;;;16.13;100.00;98277.87;4386796;32;20098;-67
2023/06/10 02:01:04;;;;;;;16.50;10.02;;;;;;;16.16;100.00;98274.88;4382580;32;165811;-66
2023/06/10 02:03:31;;;;;;;16.85;9.70;;;;;;;16.16;100.00;98274.88;4388552;32;20129;-67
2023/06/10 02:05:59;;;;;;;14.43;8.90;;;;;;;16.13;100.00;98273.41;4385721;32;20185;-67
2023/06/10 02:08:27;;;;;;;19.35;9.73;;;;;;;16.22;100.00;98278.63;4441973;32;20119;-67
2023/06/10 02:10:54;;;;;;;14.80;8.80;;;;;;;16.19;100.00;98278.97;4464899;32;20096;-67
2023/06/10 02:13:21;;;;;;;17.15;9.20;;;;;;;16.20;100.00;98272.66;4464299;32;20076;-67
2023/06/10 02:15:53;;;;;;;16.02;8.88;;;;;;;16.16;100.00;98274.06;4465085;32;20139;-67
2023/06/10 02:18:20;;;;;;;18.27;9.18;;;;;;;16.16;100.00;98276.72;4464190;32;20127;-67
2023/06/10 02:20:47;;;;;;;15.13;8.73;;;;;;;16.15;100.00;98283.81;4465624;32;20123;-67
2023/06/10 02:23:15;;;;;;;16.05;9.15;;;;;;;16.12;100.00;98277.09;4465539;32;20481;-67
2023/06/10 02:25:42;;;;;;;17.50;9.52;;;;;;;16.09;100.00;98277.44;4464982;32;20120;-66
2023/06/10 02:28:09;;;;;;;15.43;8.95;;;;;;;16.05;100.00;98272.69;4465167;32;20466;-66
2023/06/10 02:30:40;;;;;;;18.70;9.68;;;;;;;16.03;100.00;98277.34;4464765;32;20104;-66
2023/06/10 02:33:11;;;;;;;15.35;8.60;;;;;;;16.00;100.00;98273.25;4461539;32;20100;-67
2023/06/10 02:35:39;;;;;;;17.23;9.57;;;;;;;15.95;100.00;98278.28;4464989;32;20451;-67
2023/06/10 02:38:06;;;;;;;13.00;7.97;;;;;;;15.91;100.00;98274.34;4465333;32;20451;-67
2023/06/10 02:40:33;;;;;;;14.52;8.95;;;;;;;15.90;100.00;98273.53;4448351;32;20122;-67
2023/06/10 02:43:01;;;;;;;13.18;7.72;;;;;;;15.91;100.00;98280.47;4463300;32;20160;-67
2023/06/10 02:45:28;;;;;;;13.98;7.53;;;;;;;15.94;100.00;98279.28;4462110;32;20104;-67
2023/06/10 02:47:55;;;;;;;16.80;8.13;;;;;;;15.97;100.00;98278.91;4465851;32;20131;-66
2023/06/10 02:50:23;;;;;;;13.38;7.18;;;;;;;15.96;100.00;98288.66;4464023;32;20122;-67
2023/06/10 02:52:50;;;;;;;12.75;7.07;;;;;;;15.89;100.00;98282.47;4462781;32;20439;-67
2023/06/10 02:55:18;;;;;;;16.00;7.70;;;;;;;15.84;100.00;98289.31;4465960;32;20181;-67
2023/06/10 02:57:46;;;;;;;14.13;7.18;;;;;;;15.77;100.00;98284.72;4465905;32;20109;-67
2023/06/10 03:00:15;;;;;;;12.20;7.32;;;;;;;15.78;100.00;98289.03;4464945;32;20118;-66
2023/06/10 03:02:42;;;;;;;13.55;7.40;;;;;;;15.81;100.00;98289.69;4462517;32;20979;-67
2023/06/10 03:05:10;;;;;;;17.23;8.40;;;;;;;15.82;100.00;98283.38;4427647;32;20176;-67
2023/06/10 03:07:39;;;;;;;11.55;6.75;;;;;;;15.79;100.00;98282.75;4452209;32;20162;-66
2023/06/10 03:10:07;;;;;;;13.07;7.50;;;;;;;15.84;100.00;98287.47;4465692;32;20458;-66
2023/06/10 03:12:34;;;;;;;11.63;7.45;;;;;;;15.85;100.00;98281.22;4462755;32;20100;-67
2023/06/10 03:15:03;;;;;;;13.10;7.43;;;;;;;15.84;100.00;98284.03;4463086;32;20112;-66
2023/06/10 03:17:30;;;;;;;12.20;7.45;;;;;;;15.84;100.00;98274.28;4463675;32;20097;-66
2023/06/10 03:19:58;;;;;;;15.20;6.90;;;;;;;15.87;100.00;98275.75;4466095;32;20101;-66
2023/06/10 03:22:25;;;;;;;12.52;7.18;;;;;;;15.91;100.00;98279.63;4466146;32;20119;-66
2023/06/10 03:24:54;;;;;;;9.70;6.50;;;;;;;16.05;100.00;98291.19;4465514;32;20162;-66
2023/06/10 03:27:23;;;;;;;14.98;6.70;;;;;;;16.12;100.00;98287.66;4466465;32;20165;-67
2023/06/10 03:29:50;;;;;;;10.80;5.80;;;;;;;16.13;100.00;98288.47;4466348;32;20481;-66
2023/06/10 03:32:17;;;;;;;9.50;6.05;;;;;;;16.16;100.00;98289.94;4466094;32;20157;-66
2023/06/10 03:34:45;;;;;;;9.65;6.05;;;;;;;16.04;100.00;98289.56;4466862;32;20148;-67
2023/06/10 03:37:12;;;;;;;10.57;6.15;;;;;;;15.92;100.00;98287.38;4466350;32;20541;-66
2023/06/10 03:39:39;;;;;;;11.55;6.72;;;;;;;15.92;100.00;98297.94;4464518;32;20092;-67
2023/06/10 03:42:07;;;;;;;13.23;6.53;;;;;;;15.96;100.00;98291.31;4465795;32;20142;-67
2023/06/10 03:44:36;;;;;;;16.60;8.15;;;;;;;15.99;100.00;98295.41;4465800;32;20135;-67
2023/06/10 03:47:04;;;;;;;10.00;6.57;;;;;;;16.04;100.00;98287.75;4466380;32;20112;-66
2023/06/10 03:49:33;;;;;;;13.93;6.53;;;;;;;15.98;100.00;98300.87;4464850;32;20100;-67
2023/06/10 03:52:00;;;;;;;16.20;6.90;;;;;;;16.01;100.00;98296.03;4465099;32;20787;-67
2023/06/10 03:54:27;;;;;;;9.55;6.05;;;;;;;16.05;100.00;98302.59;4464046;32;20419;-67
2023/06/10 03:56:54;;;;;;;9.85;6.40;;;;;;;16.10;100.00;98292.28;4466066;32;20105;-67
2023/06/10 03:59:21;;;;;;;10.35;6.70;;;;;;;16.10;100.00;98299.41;4465358;32;20474;-66
2023/06/10 04:01:49;;;;;;;10.48;5.72;;;;;;;16.10;100.00;98289.62;4466143;32;20450;-67
2023/06/10 04:04:16;;;;;;;10.27;6.30;;;;;;;16.17;100.00;98291.53;4464754;32;20157;-67
2023/06/10 04:06:44;;;;;;;8.50;5.75;;;;;;;16.12;100.00;98292.94;4460322;32;20201;-67
2023/06/10 04:09:11;;;;;;;8.88;6.15;;;;;;;16.26;100.00;98293.06;4467740;32;20420;-67
2023/06/10 04:11:39;;;;;;;8.45;5.60;;;;;;;16.51;100.00;98290.94;4464916;32;20093;-67
2023/06/10 04:14:06;;;;;;;7.95;5.22;;;;;;;16.71;100.00;98288.47;4466193;32;20545;-67
2023/06/10 04:16:34;;;;;;;9.43;4.90;;;;;;;16.90;100.00;98294.19;4467448;32;20160;-67
2023/06/10 04:19:02;;;;;;;9.05;4.47;;;;;;;16.94;100.00;98284.84;4466647;32;20096;-67
2023/06/10 04:21:29;;;;;;;15.63;4.32;;;;;;;17.15;100.00;98290.16;4468072;32;20599;-67
2023/06/10 04:23:57;;;;;;;5.87;4.40;;;;;;;17.41;100.00;98290.53;4467904;32;20165;-67
2023/06/10 04:26:25;;;;;;;8.45;3.87;;;;;;;17.64;100.00;98284.97;4465062;32;20101;-67
2023/06/10 04:28:53;;;;;;;4.87;3.95;;;;;;;17.83;100.00;98292.22;4465649;32;20100;-67
2023/06/10 04:31:20;;;;;;;6.20;4.00;;;;;;;17.89;100.00;98293.31;4460759;32;20426;-67
2023/06/10 04:33:48;;;;;;;6.05;3.65;;;;;;;18.19;100.00;98295.69;4467123;32;20550;-67
2023/06/10 04:36:15;;;;;;;6.18;3.70;;;;;;;18.16;100.00;98294.25;4463009;32;20148;-67
2023/06/10 04:38:43;;;;;;;4.15;3.60;;;;;;;18.07;100.00;98300.72;4467952;32;20115;-67
2023/06/10 04:41:10;;;;;;;6.97;3.83;;;;;;;17.87;100.00;98306.72;4465229;32;20458;-67
2023/06/10 04:43:38;;;;;;;5.32;3.70;;;;;;;18.05;100.00;98298.28;4460002;32;20085;-67
2023/06/10 04:46:07;;;;;;;5.18;3.87;;;;;;;18.04;100.00;98295.81;4462674;32;20112;-67
2023/06/10 04:48:35;;;;;;;3.47;3.05;;;;;;;18.21;100.00;98297.12;4466104;32;20096;-67
2023/06/10 04:51:03;;;;;;;5.30;3.03;;;;;;;18.31;100.00;98291.44;4465922;32;20111;-67
2023/06/10 04:53:30;;;;;;;4.10;3.65;;;;;;;18.40;100.00;98294.75;4465412;32;20127;-67
2023/06/10 04:55:58;;;;;;;6.28;3.75;;;;;;;18.53;100.00;98289.50;4462578;32;20148;-67
2023/06/10 04:58:25;;;;;;;4.50;3.50;;;;;;;18.65;100.00;98291.53;4463177;32;20493;-67
2023/06/10 05:00:52;;;;;;;4.15;3.40;;;;;;;18.91;100.00;98291.63;4466296;32;20100;-67
2023/06/10 05:03:20;;;;;;;4.97;3.47;;;;;;;18.94;100.00;98296.53;4465629;32;20100;-67
2023/06/10 05:05:47;;;;;;;3.40;3.10;;;;;;;19.16;100.00;98298.97;4461528;32;20568;-67
2023/06/10 05:08:14;;;;;;;3.53;2.90;;;;;;;19.20;100.00;98296.72;4451083;32;20474;-67
2023/06/10 05:10:42;;;;;;;4.68;3.22;;;;;;;19.37;100.00;98302.47;4460378;32;20531;-67
2023/06/10 05:13:09;;;;;;;3.10;2.75;;;;;;;19.20;100.00;98300.22;4456777;32;20098;-67
2023/06/10 05:15:37;;;;;;;4.15;3.20;;;;;;;19.21;100.00;98307.13;4454741;32;20148;-67
2023/06/10 05:18:04;;;;;;;3.50;2.85;;;;;;;19.34;100.00;98301.03;4453581;32;20136;-67
2023/06/10 05:20:31;;;;;;;4.68;3.35;;;;;;;19.44;100.00;98308.56;4452726;32;20093;-67
2023/06/10 05:22:58;;;;;;;4.32;3.08;;;;;;;19.49;100.00;98300.81;4455937;32;20117;-67
2023/06/10 05:25:27;;;;;;;7.90;3.00;;;;;;;19.67;100.00;98308.94;4451079;32;20164;-67
2023/06/10 05:27:54;;;;;;;3.67;2.80;;;;;;;19.82;100.00;98311.41;4458366;32;20108;-67
2023/06/10 05:30:21;;;;;;;4.57;2.92;;;;;;;19.82;100.00;98302.63;4447945;32;20112;-67
2023/06/10 05:32:48;;;;;;;6.55;3.05;;;;;;;19.73;100.00;98309.13;4456458;32;20104;-67
2023/06/10 05:35:16;;;;;;;4.80;2.72;;;;;;;19.47;100.00;98305.50;4454764;32;20149;-67
2023/06/10 05:37:44;;;;;;;4.25;3.40;;;;;;;19.05;100.00;98307.56;4443101;32;20093;-67
2023/06/10 05:40:11;;;;;;;4.37;3.30;;;;;;;18.82;100.00;98306.06;4447355;32;20172;-67
2023/06/10 05:42:38;;;;;;;6.43;3.00;;;;;;;18.78;100.00;98312.81;4451150;32;20118;-67
2023/06/10 05:45:06;;;;;;;4.07;3.10;;;;;;;18.68;100.00;98310.50;4451830;32;20119;-67
2023/06/10 05:47:34;;;;;;;5.82;3.10;;;;;;;18.73;100.00;98310.75;4451893;32;20432;-67
2023/06/10 05:50:02;;;;;;;7.72;3.72;;;;;;;18.67;100.00;98305.41;4443643;32;20105;-67
2023/06/10 05:52:29;;;;;;;4.30;3.17;;;;;;;18.67;100.00;98314.22;4458705;32;20105;-67
2023/06/10 05:54:59;;;;;;;5.03;3.33;;;;;;;18.93;100.00;98315.31;4467270;32;20127;-67
2023/06/10 05:57:26;;;;;;;6.60;3.47;;;;;;;18.92;100.00;98314.47;4466664;32;20147;-67
2023/06/10 05:59:54;;;;;;;6.15;3.42;;;;;;;19.01;100.00;98319.59;4465442;32;20108;-67
2023/06/10 06:02:21;;;;;;;7.68;3.65;;;;;;;19.28;100.00;98320.44;4466154;32;20101;-67
2023/06/10 06:04:49;;;;;;;5.15;3.90;;;;;;;19.64;100.00;98313.88;4463608;32;20427;-67
2023/06/10 06:07:16;;;;;;;6.28;3.75;;;;;;;19.86;100.00;98319.78;4461542;32;20155;-67
2023/06/10 06:09:43;;;;;;;4.85;3.83;;;;;;;20.08;100.00;98319.53;4455228;32;20180;-67
2023/06/10 06:12:10;;;;;;;5.30;3.55;;;;;;;20.00;100.00;98318.72;4464498;32;20406;-67
2023/06/10 06:14:41;;;;;;;5.90;3.37;;;;;;;20.00;100.00;98316.06;4457957;32;20131;-67
2023/06/10 06:17:08;;;;;;;6.70;3.42;;;;;;;20.18;100.00;98314.56;4468668;32;20240;-67
2023/06/10 06:19:36;;;;;;;3.95;3.28;;;;;;;20.42;100.00;98321.00;4463402;32;20092;-67
2023/06/10 06:22:03;;;;;;;5.75;3.00;;;;;;;20.52;100.00;98317.91;4452600;32;20120;-67
2023/06/10 06:24:30;;;;;;;4.35;2.83;;;;;;;20.46;100.00;98324.87;4460523;32;20105;-67
2023/06/10 06:26:58;;;;;;;5.37;2.87;;;;;;;20.11;100.00;98321.78;4464236;32;20093;-67
2023/06/10 06:29:25;;;;;;;3.62;2.92;;;;;;;19.84;100.00;98327.16;4467167;32;20183;-67
2023/06/10 06:31:53;;;;;;;5.15;2.90;;;;;;;19.58;100.00;98328.78;4469299;32;20123;-67
2023/06/10 06:34:20;;;;;;;6.90;3.47;;;;;;;19.53;100.00;98325.94;4463029;32;20104;-67
2023/06/10 06:36:48;;;;;;;3.58;3.05;;;;;;;19.45;100.00;98336.78;4460411;32;20164;-67
2023/06/10 06:39:16;;;;;;;4.12;3.42;;;;;;;19.35;100.00;98333.69;4464484;32;20461;-67
2023/06/10 06:41:44;;;;;;;5.30;3.10;;;;;;;19.57;100.00;98331.66;4464168;32;20173;-67
2023/06/10 06:44:11;;;;;;;4.10;2.90;;;;;;;20.02;100.00;98332.63;4462612;32;20097;-67
2023/06/10 06:46:38;;;;;;;3.90;2.03;;;;;;;20.29;100.00;98329.06;4462908;32;20677;-67
2023/06/10 06:49:06;;;;;;;2.80;2.20;;;;;;;20.33;100.00;98330.25;4461642;32;20089;-67
2023/06/10 06:51:33;;;;;;;3.20;2.37;;;;;;;20.54;100.00;98327.28;4462188;32;20104;-67
2023/06/10 06:54:00;;;;;;;2.87;2.60;;;;;;;20.18;100.00;98333.19;4465675;32;20499;-67
2023/06/10 06:56:28;;;;;;;7.80;2.37;;;;;;;20.06;100.00;98334.84;4465813;32;20609;-67
2023/06/10 06:58:55;;;;;;;5.12;3.03;;;;;;;19.88;100.00;98328.38;4467537;32;20144;-67
2023/06/10 07:01:24;;;;;;;2.90;2.28;;;;;;;19.81;100.00;98322.25;4465504;32;20097;-67
2023/06/10 07:03:52;;;;;;;4.22;3.17;;;;;;;19.66;100.00;98331.22;4466875;32;20725;-67
2023/06/10 07:06:19;;;;;;;4.97;3.00;;;;;;;19.66;100.00;98328.56;4463771;32;20647;-67
2023/06/10 07:08:46;;;;;;;4.28;3.22;;;;;;;20.25;100.00;98333.19;4462601;32;20118;-67
2023/06/10 07:11:14;;;;;;;3.90;2.83;;;;;;;20.73;100.00;98333.59;4464876;32;20478;-66
2023/06/10 07:13:41;;;;;;;10.95;3.78;;;;;;;20.77;100.00;98330.50;4465085;32;20109;-67
2023/06/10 07:16:09;;;;;;;6.37;3.53;;;;;;;20.91;100.00;98334.72;4463345;32;20166;-67
2023/06/10 07:18:36;;;;;;;4.45;3.10;;;;;;;21.30;100.00;98326.66;4470040;32;20583;-67
2023/06/10 07:21:03;;;;;;;4.85;3.40;;;;;;;21.33;100.00;98335.00;4468764;32;20100;-67
2023/06/10 07:23:31;;;;;;;4.95;3.28;;;;;;;21.37;100.00;98336.22;4469663;32;20164;-67
2023/06/10 07:25:58;;;;;;;3.62;2.78;;;;;;;21.08;100.00;98337.69;4469678;32;20187;-67
2023/06/10 07:28:25;;;;;;;4.90;3.08;;;;;;;20.94;100.00;98333.44;4469722;32;20072;-67
2023/06/10 07:30:52;;;;;;;4.40;3.15;;;;;;;20.61;100.00;98332.59;4469647;32;20120;-67
2023/06/10 07:33:20;;;;;;;4.07;2.80;;;;;;;20.97;100.00;98330.34;4470009;32;20556;-67
2023/06/10 07:35:47;;;;;;;4.37;3.40;;;;;;;21.26;100.00;98328.94;4469872;32;20100;-67
2023/06/10 07:38:14;;;;;;;4.50;2.80;;;;;;;21.30;100.00;98334.63;4469666;32;20583;-67
2023/06/10 07:40:41;;;;;;;3.17;2.53;;;;;;;21.57;100.00;98343.25;4469802;32;20128;-67
2023/06/10 07:43:09;;;;;;;4.15;3.22;;;;;;;21.35;100.00;98343.62;4469664;32;20485;-67
2023/06/10 07:45:36;;;;;;;3.45;2.90;;;;;;;21.35;100.00;98332.97;4469729;32;20156;-67
2023/06/10 07:48:04;;;;;;;6.22;3.80;;;;;;;21.63;100.00;98339.72;4469510;32;20097;-67
2023/06/10 07:50:31;;;;;;;5.43;3.03;;;;;;;21.55;100.00;98342.66;4469506;32;20119;-67
2023/06/10 07:52:58;;;;;;;5.32;3.05;;;;;;;22.09;100.00;98342.94;4469614;32;20115;-67
2023/06/10 07:55:26;;;;;;;6.05;3.65;;;;;;;22.02;100.00;98337.69;4469638;32;20093;-67
2023/06/10 07:57:54;;;;;;;4.95;3.22;;;;;;;21.58;100.00;98348.38;4469573;32;20163;-67
2023/06/10 08:00:21;;;;;;;4.97;3.65;;;;;;;21.68;100.00;98347.87;4469736;32;20502;-67
2023/06/10 08:02:48;;;;;;;15.45;3.83;;;;;;;21.40;100.00;98343.78;4469331;32;20152;-67
2023/06/10 08:05:16;;;;;;;4.45;3.70;;;;;;;21.42;100.00;98343.56;4469468;32;20089;-67
2023/06/10 08:07:44;;;;;;;5.32;4.05;;;;;;;21.33;100.00;98342.19;4469321;32;20143;-67
2023/06/10 08:10:11;;;;;;;5.95;3.87;;;;;;;21.69;100.00;98344.16;4469764;32;20131;-67
2023/06/10 08:12:38;;;;;;;5.60;4.32;;;;;;;21.76;100.00;98349.44;4469150;32;20092;-67
2023/06/10 08:15:06;;;;;;;4.43;3.70;;;;;;;22.11;100.00;98341.69;4469427;32;20088;-67
2023/06/10 08:17:34;;;;;;;4.07;3.58;;;;;;;22.20;100.00;98344.06;4469316;32;20113;-67
2023/06/10 08:20:01;;;;;;;5.07;3.80;;;;;;;22.25;100.00;98347.69;4469230;32;20511;-67
2023/06/10 08:22:29;;;;;;;5.87;3.80;;;;;;;22.00;100.00;98350.44;4469098;32;20574;-67
2023/06/10 08:24:56;;;;;;;3.97;3.35;;;;;;;22.32;100.00;98344.97;4469339;32;20108;-67
2023/06/10 08:27:24;;;;;;;4.62;3.85;;;;;;;22.44;100.00;98342.38;4469298;32;20076;-67
2023/06/10 08:29:51;;;;;;;4.82;3.28;;;;;;;22.26;100.00;98335.97;4469053;32;20100;-67
2023/06/10 08:32:19;;;;;;;4.40;3.87;;;;;;;22.25;100.00;98333.53;4469231;32;20149;-67
2023/06/10 08:34:46;;;;;;;5.60;3.45;;;;;;;22.26;100.00;98340.50;4469177;32;20118;-67
2023/06/10 08:37:14;;;;;;;4.40;3.53;;;;;;;22.22;100.00;98340.13;4469383;32;20468;-67
2023/06/10 08:39:41;;;;;;;4.03;3.60;;;;;;;22.48;100.00;98341.69;4469111;32;20427;-67
2023/06/10 08:42:24;;;;;;;4.50;3.72;;;;;;;22.34;100.00;98345.56;4468212;32;20184;-67
2023/06/10 08:44:55;;;;;;;3.47;3.17;;;;;;;22.30;100.00;98336.34;4469286;32;20133;-67
2023/06/10 08:47:24;;;;;;;3.50;3.00;;;;;;;22.33;100.00;98333.25;4469276;32;20471;-67
2023/06/10 08:49:53;;;;;;;5.37;3.17;;;;;;;22.52;100.00;98336.72;4468891;32;20104;-67
2023/06/10 08:52:20;;;;;;;4.43;3.78;;;;;;;22.50;100.00;98334.28;4455133;32;20116;-67
2023/06/10 08:54:52;;;;;;;4.70;3.42;;;;;;;22.91;100.00;98328.38;4469042;32;20115;-67
2023/06/10 08:57:21;;;;;;;3.58;3.10;;;;;;;22.68;100.00;98332.63;4468994;32;20072;-67
2023/06/10 08:59:49;;;;;;;4.55;3.10;;;;;;;22.90;100.00;98332.09;4468942;32;20425;-67
2023/06/10 09:02:19;;;;;;;4.60;3.47;;;;;;;23.14;100.00;98319.66;4468907;32;20115;-67
2023/06/10 09:04:48;;;;;;;5.22;3.53;;;;;;;23.55;100.00;98309.91;4455390;32;20148;-67
2023/06/10 09:07:16;;;;;;;5.97;3.40;;;;;;;23.63;100.00;98314.09;4454828;32;20152;-67
2023/06/10 09:09:44;;;;;;;5.45;3.80;;;;;;;23.38;100.00;98317.81;4468771;32;20120;-67
2023/06/10 09:12:14;;;;;;;4.30;3.78;;;;;;;23.77;100.00;98314.66;4468769;32;20119;-67
2023/06/10 09:14:43;;;;;;;4.47;3.10;;;;;;;23.70;100.00;98312.12;4468994;32;20102;-67
2023/06/10 09:17:12;;;;;;;4.05;3.65;;;;;;;24.35;97.26;98316.44;4468760;32;20089;-67
2023/06/10 09:19:40;;;;;;;4.97;3.30;;;;;;;24.34;95.97;98314.00;4468477;32;20140;-67
2023/06/10 09:22:07;;;;;;;5.35;3.50;;;;;;;24.07;98.10;98301.16;4468641;32;20105;-67
2023/06/10 09:24:35;;;;;;;3.70;3.08;;;;;;;23.75;96.75;98304.19;4468572;32;20148;-67
2023/06/10 09:27:06;;;;;;;4.12;2.78;;;;;;;23.77;99.62;98302.13;4454549;32;20089;-67
2023/06/10 09:29:57;;;;;;;3.30;3.00;;;;;;;23.67;94.87;98309.91;4468609;32;20085;-67
2023/06/10 09:32:25;;;;;;;3.58;3.03;;;;;;;23.77;94.09;98304.78;4460253;32;20826;-67
2023/06/10 09:34:52;;;;;;;3.50;3.00;;;;;;;24.17;95.53;98297.88;4467789;32;20114;-67
2023/06/10 09:37:21;;;;;;;3.40;3.10;;;;;;;24.40;92.83;98300.47;4468402;32;20084;-67
2023/06/10 09:40:08;;;;;;;4.55;3.58;;;;;;;24.54;94.14;98314.41;4468285;32;20097;-67
2023/06/10 09:42:38;;;;;;;4.00;3.15;;;;;;;24.54;92.85;98309.06;4468380;32;20553;-67
2023/06/10 09:45:07;;;;;;;4.12;2.78;;;;;;;24.15;92.65;98300.78;4468097;32;20088;-67
2023/06/10 09:47:34;;;;;;;4.18;3.12;;;;;;;24.07;91.68;98299.31;4468220;32;20116;-67
2023/06/10 09:50:03;;;;;;;5.15;3.03;;;;;;;23.82;93.38;98304.91;4468065;32;20954;-67
2023/06/10 09:52:30;;;;;;;3.90;2.85;;;;;;;24.01;92.86;98305.59;4468901;32;20125;-67
2023/06/10 09:55:01;;;;;;;2.78;2.58;;;;;;;24.06;92.37;98307.56;4470182;32;20119;-67
2023/06/10 09:57:33;;;;;;;3.08;2.75;;;;;;;23.88;100.00;98306.66;4470592;32;20068;-67
2023/06/10 10:00:05;;;;;;;3.67;2.62;;;;;;;23.34;100.00;98311.31;4469911;32;20184;-67
2023/06/10 10:02:53;;;;;;;4.55;2.92;;;;;;;22.99;100.00;98304.00;4470314;32;20088;-67
2023/06/10 10:05:22;;;;;;;4.10;2.97;;;;;;;22.75;100.00;98298.59;4469885;32;20104;-67
2023/06/10 10:07:50;;;;;;;3.28;2.97;;;;;;;22.95;100.00;98294.81;4470261;32;20623;-67
2023/06/10 10:10:19;;;;;;;4.05;3.15;;;;;;;23.44;100.00;98306.19;4470160;32;20097;-67
2023/06/10 10:12:48;;;;;;;5.47;2.87;;;;;;;23.27;100.00;98294.56;4465529;32;20109;-67
2023/06/10 10:15:18;;;;;;;4.60;3.28;;;;;;;23.23;100.00;98301.44;4454576;32;20135;-67
2023/06/10 10:18:07;;;;;;;5.50;3.50;;;;;;;22.90;100.00;98295.50;4440465;32;20089;-68
2023/06/10 10:20:49;;;;;;;4.45;3.30;;;;;;;23.12;100.00;98293.16;4440501;32;20140;-67
2023/06/10 10:23:21;;;;;;;3.40;2.80;;;;;;;23.29;100.00;98295.97;4454595;32;20082;-67
2023/06/10 10:25:52;;;;;;;6.35;3.55;;;;;;;23.05;100.00;98300.44;4440625;32;20148;-68
2023/06/10 10:28:21;;;;;;;3.95;3.00;;;;;;;22.81;100.00;98302.22;4440587;32;20072;-67
2023/06/10 10:30:52;;;;;;;4.90;3.40;;;;;;;22.97;100.00;98298.91;4454481;32;20084;-67
2023/06/10 10:33:23;;;;;;;3.55;3.25;;;;;;;22.86;100.00;98297.84;4454433;32;20089;-67
2023/06/10 10:35:50;;;;;;;5.15;2.80;;;;;;;22.94;100.00;98287.88;4427681;32;20080;-67
2023/06/10 10:38:18;;;;;;;3.97;3.37;;;;;;;23.02;100.00;98295.53;4440201;32;20143;-67
2023/06/10 10:40:46;;;;;;;4.47;2.90;;;;;;;23.00;100.00;98292.28;4440247;32;20424;-67
2023/06/10 10:43:14;;;;;;;4.60;2.45;;;;;;;22.77;100.00;98285.84;4442840;32;20586;-67
2023/06/10 10:45:41;;;;;;;4.18;2.60;;;;;;;22.83;100.00;98284.94;4455749;32;20425;-67
2023/06/10 10:48:12;;;;;;;3.15;2.70;;;;;;;22.78;100.00;98276.78;4470114;32;20092;-67
2023/06/10 10:50:40;;;;;;;3.35;2.50;;;;;;;22.73;100.00;98279.34;4469676;32;20112;-67
2023/06/10 10:53:08;;;;;;;3.75;2.78;;;;;;;22.86;100.00;98279.13;4469910;32;20132;-67
2023/06/10 10:55:35;;;;;;;4.05;2.67;;;;;;;23.12;100.00;98276.28;4469830;32;20123;-67
2023/06/10 10:58:04;;;;;;;4.87;3.10;;;;;;;23.03;100.00;98275.81;4469707;32;20119;-67
2023/06/10 11:00:37;;;;;;;5.32;2.33;;;;;;;23.46;100.00;98277.34;4469764;32;20085;-67
2023/06/10 11:03:07;;;;;;;4.03;2.90;;;;;;;23.59;100.00;98279.00;4470001;32;20141;-67
2023/06/10 11:05:48;;;;;;;3.47;2.55;;;;;;;23.45;100.00;98281.09;4469287;32;20088;-67
2023/06/10 11:08:35;;;;;;;2.70;2.45;;;;;;;23.80;100.00;98277.56;4469947;32;20597;-67
2023/06/10 11:11:25;;;;;;;8.85;6.55;;;;;;;23.72;100.00;98267.22;4470137;32;20153;-67
2023/06/10 11:14:01;;;;;;;11.30;9.38;;;;;;;23.59;100.00;98270.97;4458586;32;20172;-67
2023/06/10 11:16:29;;;;;;;11.65;8.95;;;;;;;23.21;100.00;98273.06;4454326;32;20180;-67
2023/06/10 11:18:56;;;;;;;14.77;9.95;;;;;;;23.09;100.00;98276.72;4454313;32;20089;-67
2023/06/10 11:21:25;;;;;;;11.52;8.95;;;;;;;23.42;100.00;98268.16;4454356;32;20089;-67
2023/06/10 11:23:57;;;;;;;10.18;7.62;;;;;;;23.78;100.00;98268.16;4454277;32;20180;-67
2023/06/10 11:26:34;;;;;;;11.52;8.55;;;;;;;23.75;100.00;98264.06;4454224;32;20107;-67
2023/06/10 11:29:08;;;;;;;8.73;7.28;;;;;;;23.55;100.00;98267.94;4454071;32;20496;-67